Main page
METAR-TAF:

METAR-TAF

Airports :

King Khalid International Airport

Riyadh, Saudi Arabia

latitude: 24-56N, longitude: 046-43E, elevation: 614 m

Current weather observation

The report was made 58 minutes ago, at 23:00 UTC
Wind 3 kt from the North
Temperature 28°C
Humidity 23%
Pressure 1014 hPa
Visibility 10 km or more
no clouds below 1500 m and no cumulonimbus

METAR: OERK 222300Z 01003KT CAVOK 28/05 Q1014 NOSIG

Time: 02:58 (23:58 UTC)

Forecast

The report was made 58 minutes ago, at 23:00 UTC
Forecast valid from 23 at 00 UTC to 24 at 06 UTC
Wind 3 kt from variable directions
Visibility: 7000 m
Becoming
from 23 at 06 UTC to 23 at 08 UTC
Wind 8 kt from the North/Northwest with gusts up to 18 kt

TAF: OERK 222300Z 2300/2406 VRB03KT 7000 NSC BECMG 2306/2308 34008G18KT

Weather observations and forecasts of more than 4000 airports (METAR and TAF reports).

The available stations are represented by yellow and red dots on the map.

Hover mouse over dot to see the name of the station.

Then click to see weather observations and forecasts.

To change the map : click on the green buttons with a black cross to zoom in, on the green button with a dash to zoom out, or on the green arrows for adjacent maps.


METAR-TAF: